Time;durP1;ratioP1;P1;durP2;ratioP2;P2;SDS_P1;SDS_P2;PMS_P1;PMS_P2;Temp;Humidity;BMP_temperature;BMP_pressure;BME280_temperature;BME280_humidity;BME280_pressure;Samples;Min_cycle;Max_cycle;Signal;HPM_P1;HPM_P2
2021/11/27 00:00:40;;;;;;;7.22;1.63;;;3.80;90.90;;;;;;5066619;28;20055;-55
2021/11/27 00:03:07;;;;;;;4.85;1.67;;;3.80;91.30;;;;;;5066048;28;20106;-54
2021/11/27 00:05:34;;;;;;;9.57;1.60;;;3.90;91.40;;;;;;5064619;28;20129;-56
2021/11/27 00:08:02;;;;;;;7.45;1.70;;;3.80;91.30;;;;;;5064241;28;20048;-54
2021/11/27 00:10:29;;;;;;;9.52;1.58;;;3.80;91.30;;;;;;5066579;28;20235;-55
2021/11/27 00:12:56;;;;;;;3.72;1.35;;;3.80;91.80;;;;;;5067465;28;20099;-56
2021/11/27 00:15:24;;;;;;;5.95;1.30;;;3.70;92.00;;;;;;5067655;28;20048;-53
2021/11/27 00:17:51;;;;;;;8.65;1.65;;;3.70;92.60;;;;;;5068147;28;20326;-55
2021/11/27 00:20:20;;;;;;;15.35;2.53;;;3.60;92.90;;;;;;5068202;28;20048;-57
2021/11/27 00:22:47;;;;;;;12.77;1.65;;;3.60;93.20;;;;;;5068257;28;20496;-54
2021/11/27 00:25:14;;;;;;;7.10;1.48;;;3.50;93.70;;;;;;5067598;28;20048;-55
2021/11/27 00:27:42;;;;;;;11.88;1.40;;;3.50;93.90;;;;;;5067954;28;20472;-55
2021/11/27 00:30:10;;;;;;;7.95;1.30;;;3.40;94.30;;;;;;5066421;28;20484;-55
2021/11/27 00:32:37;;;;;;;6.63;1.35;;;3.40;94.80;;;;;;5066677;28;20045;-55
2021/11/27 00:35:05;;;;;;;5.47;1.10;;;3.30;94.60;;;;;;5067322;28;20095;-56
2021/11/27 00:37:32;;;;;;;7.65;1.70;;;3.30;95.00;;;;;;5068858;28;20044;-54
2021/11/27 00:39:59;;;;;;;10.82;1.73;;;3.20;95.30;;;;;;5069044;28;20048;-56
2021/11/27 00:42:26;;;;;;;7.32;1.45;;;3.20;95.50;;;;;;5066452;28;20480;-57
2021/11/27 00:44:53;;;;;;;5.07;1.20;;;3.20;95.20;;;;;;5067512;28;20056;-58
2021/11/27 00:47:19;;;;;;;9.70;1.75;;;3.20;95.70;;;;;;5067894;28;20473;-57
2021/11/27 00:49:50;;;;;;;3.33;1.17;;;3.10;96.00;;;;;;5068115;28;20088;-54
2021/11/27 00:52:17;;;;;;;2.75;1.10;;;3.10;96.30;;;;;;5068377;28;20097;-55
2021/11/27 00:54:44;;;;;;;8.23;1.70;;;3.10;96.10;;;;;;5068564;28;20048;-56
2021/11/27 00:57:11;;;;;;;3.13;1.10;;;3.10;96.10;;;;;;5067156;28;20048;-56
2021/11/27 00:59:37;;;;;;;8.32;1.00;;;3.10;95.70;;;;;;5068560;28;20083;-55
2021/11/27 01:02:04;;;;;;;3.40;0.80;;;3.10;95.80;;;;;;5067485;28;20048;-54
2021/11/27 01:04:31;;;;;;;5.65;1.15;;;3.10;95.90;;;;;;5067677;28;20507;-53
2021/11/27 01:06:58;;;;;;;5.72;0.80;;;3.10;96.40;;;;;;5067518;28;20330;-57
2021/11/27 01:09:25;;;;;;;9.43;1.63;;;3.10;96.30;;;;;;5067630;28;20048;-55
2021/11/27 01:11:54;;;;;;;4.03;1.00;;;3.10;96.50;;;;;;5067325;28;20127;-59
2021/11/27 01:14:23;;;;;;;3.47;1.00;;;3.10;96.30;;;;;;5067527;28;20479;-56
2021/11/27 01:16:58;;;;;;;4.55;1.02;;;3.10;96.50;;;;;;5067665;28;20047;-57
2021/11/27 01:19:25;;;;;;;9.07;1.50;;;3.20;96.90;;;;;;5068773;28;20056;-57
2021/11/27 01:21:55;;;;;;;5.38;1.20;;;3.10;96.50;;;;;;5069060;28;20283;-57
2021/11/27 01:24:22;;;;;;;2.20;1.08;;;3.30;96.60;;;;;;5068222;28;20055;-57
2021/11/27 01:26:49;;;;;;;8.27;2.25;;;3.20;96.30;;;;;;5067508;28;20102;-55
2021/11/27 01:29:33;;;;;;;5.63;1.00;;;3.10;97.00;;;;;;5067535;28;20048;-55
2021/11/27 01:32:00;;;;;;;2.63;0.63;;;3.10;97.20;;;;;;5067217;28;20045;-56
2021/11/27 01:34:27;;;;;;;1.88;0.60;;;3.10;97.40;;;;;;5067482;28;20243;-53
2021/11/27 01:36:54;;;;;;;4.18;1.17;;;3.00;97.50;;;;;;5067038;28;20041;-55
2021/11/27 01:39:20;;;;;;;2.85;0.90;;;3.10;97.60;;;;;;5067482;28;20094;-54
2021/11/27 01:41:47;;;;;;;1.75;0.90;;;2.80;97.80;;;;;;5067206;28;20044;-57
2021/11/27 01:44:14;;;;;;;2.70;0.80;;;2.80;97.70;;;;;;5066810;28;20098;-56
2021/11/27 01:46:41;;;;;;;7.93;0.88;;;2.80;98.20;;;;;;5065578;28;20538;-52
2021/11/27 01:49:08;;;;;;;1.20;0.60;;;2.80;98.20;;;;;;5065874;28;20052;-54
2021/11/27 01:51:36;;;;;;;6.72;0.95;;;2.80;98.30;;;;;;5066109;28;20083;-55
2021/11/27 01:54:07;;;;;;;3.15;0.60;;;2.70;98.10;;;;;;5067234;28;20056;-53
2021/11/27 01:56:37;;;;;;;2.15;0.60;;;2.70;98.40;;;;;;5071260;28;20048;-55
2021/11/27 01:59:04;;;;;;;1.77;0.95;;;2.70;98.30;;;;;;5069423;28;20528;-57
2021/11/27 02:01:31;;;;;;;1.73;0.80;;;2.70;98.40;;;;;;5071176;28;20044;-56
2021/11/27 02:03:58;;;;;;;0.80;0.40;;;2.70;98.60;;;;;;5070371;28;20048;-56
2021/11/27 02:06:26;;;;;;;1.60;0.60;;;2.70;98.60;;;;;;5070976;28;20052;-61
2021/11/27 02:08:54;;;;;;;2.05;0.40;;;2.70;98.40;;;;;;5069832;28;20143;-55
2021/11/27 02:11:24;;;;;;;3.38;0.60;;;2.70;98.70;;;;;;4734198;27;9999889;-55
2021/11/27 02:13:51;;;;;;;0.63;0.43;;;2.70;98.80;;;;;;5075802;28;20033;-56
2021/11/27 02:16:17;;;;;;;0.45;0.35;;;2.70;98.80;;;;;;5070814;28;20557;-53
2021/11/27 02:18:44;;;;;;;0.63;0.60;;;2.70;98.90;;;;;;5070374;28;20487;-53
2021/11/27 02:21:13;;;;;;;2.10;0.57;;;2.70;99.00;;;;;;5071097;28;20056;-55
2021/11/27 02:23:40;;;;;;;0.98;0.45;;;2.70;99.10;;;;;;5070621;28;20047;-52
2021/11/27 02:26:09;;;;;;;3.10;0.47;;;2.70;99.40;;;;;;5070955;28;20434;-56
2021/11/27 02:28:38;;;;;;;2.05;0.70;;;2.70;99.10;;;;;;5070276;28;20041;-53
2021/11/27 02:31:05;;;;;;;2.10;0.60;;;2.70;99.20;;;;;;5059728;28;20044;-55
2021/11/27 02:33:33;;;;;;;0.80;0.40;;;2.70;99.10;;;;;;5070482;28;20076;-56
2021/11/27 02:36:00;;;;;;;0.82;0.50;;;2.80;99.20;;;;;;5070288;28;20403;-55
2021/11/27 02:38:27;;;;;;;4.50;0.65;;;2.80;99.30;;;;;;5069919;28;20099;-55
2021/11/27 02:40:54;;;;;;;1.67;0.50;;;2.90;99.40;;;;;;5068876;28;20044;-56
2021/11/27 02:43:20;;;;;;;2.80;0.80;;;2.90;99.30;;;;;;5069821;28;20098;-55
2021/11/27 02:45:47;;;;;;;0.40;0.40;;;2.90;99.20;;;;;;5069776;28;20048;-56
2021/11/27 02:48:14;;;;;;;2.30;0.65;;;3.00;99.20;;;;;;5070695;28;20118;-61
2021/11/27 02:50:41;;;;;;;0.82;0.50;;;3.00;99.20;;;;;;5068815;28;20106;-54
2021/11/27 02:53:08;;;;;;;0.38;0.38;;;3.00;99.20;;;;;;5070443;28;20049;-54
2021/11/27 02:55:34;;;;;;;7.80;0.85;;;3.10;99.10;;;;;;5069981;28;20055;-56
2021/11/27 02:58:01;;;;;;;0.85;0.40;;;3.30;98.90;;;;;;5070249;28;20094;-57
2021/11/27 03:00:28;;;;;;;1.75;0.55;;;3.20;99.00;;;;;;5069869;28;20140;-57
2021/11/27 03:02:55;;;;;;;1.00;0.70;;;3.20;99.10;;;;;;5069756;28;20048;-57
2021/11/27 03:05:22;;;;;;;0.75;0.57;;;3.30;99.30;;;;;;5069350;28;20052;-56
2021/11/27 03:07:49;;;;;;;1.60;0.80;;;3.20;99.20;;;;;;5070334;28;20443;-56
2021/11/27 03:10:18;;;;;;;2.42;0.88;;;3.20;99.20;;;;;;5069496;28;20052;-55
2021/11/27 03:12:45;;;;;;;1.38;0.98;;;3.20;99.20;;;;;;5070090;28;20041;-55
2021/11/27 03:15:14;;;;;;;1.42;0.80;;;3.20;98.70;;;;;;5070012;28;20093;-61
2021/11/27 03:17:41;;;;;;;1.70;1.20;;;3.30;98.50;;;;;;5070750;28;20044;-60
2021/11/27 03:20:08;;;;;;;3.10;1.20;;;3.30;98.70;;;;;;5068921;28;20098;-57
2021/11/27 03:22:35;;;;;;;1.33;1.20;;;3.20;98.10;;;;;;5069935;28;20098;-57
2021/11/27 03:25:03;;;;;;;4.60;1.30;;;3.20;98.50;;;;;;5068408;28;20075;-55
2021/11/27 03:27:30;;;;;;;2.42;1.30;;;3.20;98.00;;;;;;5066191;28;20071;-56
2021/11/27 03:29:56;;;;;;;4.30;2.83;;;3.20;98.00;;;;;;5069902;28;20407;-58
2021/11/27 03:32:23;;;;;;;1.83;1.17;;;3.10;98.30;;;;;;5068957;28;20079;-56
2021/11/27 03:34:50;;;;;;;1.20;1.00;;;3.10;98.00;;;;;;5069913;28;20052;-55
2021/11/27 03:37:18;;;;;;;1.13;0.93;;;3.00;98.00;;;;;;5069723;28;20052;-55
2021/11/27 03:39:45;;;;;;;1.40;1.27;;;2.90;98.40;;;;;;5069674;28;20052;-55
2021/11/27 03:42:12;;;;;;;1.52;1.00;;;2.80;98.40;;;;;;5070070;28;20059;-57
2021/11/27 03:44:39;;;;;;;1.33;1.00;;;2.70;98.40;;;;;;5069715;28;20511;-55
2021/11/27 03:47:10;;;;;;;1.23;1.00;;;2.70;98.50;;;;;;5068930;28;20037;-56
2021/11/27 03:49:37;;;;;;;1.40;1.23;;;2.60;98.50;;;;;;5069362;28;20040;-56
2021/11/27 03:52:04;;;;;;;0.80;0.80;;;2.60;98.70;;;;;;5069168;28;20040;-55
2021/11/27 03:54:31;;;;;;;1.88;1.40;;;2.60;98.60;;;;;;5068218;28;20052;-56
2021/11/27 03:56:57;;;;;;;1.20;1.10;;;2.60;98.70;;;;;;5069065;28;20040;-56
2021/11/27 03:59:24;;;;;;;2.58;1.45;;;2.60;99.00;;;;;;5069371;28;20399;-57
2021/11/27 04:01:51;;;;;;;1.30;1.10;;;2.60;99.00;;;;;;5065408;28;20120;-56
2021/11/27 04:04:19;;;;;;;2.65;1.42;;;2.50;98.30;;;;;;5055014;28;20099;-58
2021/11/27 04:06:46;;;;;;;4.13;1.88;;;2.50;98.70;;;;;;5067880;28;20041;-56
2021/11/27 04:09:13;;;;;;;2.47;1.55;;;2.50;99.00;;;;;;5067577;28;20052;-55
2021/11/27 04:11:40;;;;;;;2.55;1.90;;;2.50;99.10;;;;;;5069162;28;20051;-55
2021/11/27 04:14:07;;;;;;;2.03;1.50;;;2.50;99.00;;;;;;5068860;28;20055;-58
2021/11/27 04:16:34;;;;;;;5.20;2.00;;;2.40;98.70;;;;;;5068440;28;20419;-55
2021/11/27 04:19:01;;;;;;;2.80;1.85;;;2.40;98.90;;;;;;5067349;28;20048;-54
2021/11/27 04:21:27;;;;;;;2.25;1.67;;;2.40;98.70;;;;;;5067830;28;20094;-58
2021/11/27 04:23:54;;;;;;;1.90;1.58;;;2.30;98.90;;;;;;5068898;28;20049;-57
2021/11/27 04:26:21;;;;;;;1.63;1.40;;;2.30;98.70;;;;;;5068684;28;20048;-57
2021/11/27 04:28:49;;;;;;;1.92;1.75;;;2.30;98.60;;;;;;5068873;28;20102;-57
2021/11/27 04:31:17;;;;;;;2.03;1.70;;;2.30;99.10;;;;;;5069183;28;20052;-57
2021/11/27 04:33:45;;;;;;;3.42;1.40;;;2.30;99.30;;;;;;5068514;28;20052;-55
2021/11/27 04:36:12;;;;;;;1.42;1.33;;;2.20;98.80;;;;;;5068079;28;20109;-61
2021/11/27 04:38:39;;;;;;;1.90;1.55;;;2.20;99.30;;;;;;5069339;28;20507;-56
2021/11/27 04:41:06;;;;;;;1.90;1.65;;;2.30;99.40;;;;;;5067586;28;20102;-58
2021/11/27 04:43:34;;;;;;;1.92;1.73;;;2.30;99.20;;;;;;5068872;28;20131;-58
2021/11/27 04:46:02;;;;;;;2.38;1.95;;;2.40;99.10;;;;;;5066746;28;20048;-57
2021/11/27 04:48:28;;;;;;;2.20;2.00;;;2.30;99.50;;;;;;5068325;28;20385;-56
2021/11/27 04:50:55;;;;;;;3.22;2.00;;;2.40;99.50;;;;;;5068208;28;20075;-56
2021/11/27 04:53:23;;;;;;;2.60;2.13;;;2.40;99.10;;;;;;5068238;28;20047;-57
2021/11/27 04:55:49;;;;;;;2.83;2.45;;;2.40;99.30;;;;;;5068498;28;20048;-56
2021/11/27 04:58:16;;;;;;;3.47;2.67;;;2.40;99.00;;;;;;5068630;28;20052;-57
2021/11/27 05:00:46;;;;;;;6.22;3.30;;;2.40;99.20;;;;;;5069104;28;20117;-58
2021/11/27 05:03:13;;;;;;;3.17;2.33;;;2.40;99.30;;;;;;5068264;28;20076;-55
2021/11/27 05:05:40;;;;;;;5.30;3.10;;;2.40;99.10;;;;;;5068963;28;20044;-60
2021/11/27 05:08:07;;;;;;;10.07;3.80;;;2.30;99.00;;;;;;5069623;28;20045;-56
2021/11/27 05:10:34;;;;;;;7.53;3.67;;;2.40;99.60;;;;;;5068624;28;20566;-56
2021/11/27 05:13:01;;;;;;;5.15;3.78;;;2.50;99.70;;;;;;5069083;28;20491;-58
2021/11/27 05:15:28;;;;;;;5.00;3.85;;;2.50;99.50;;;;;;5068946;28;20056;-57
2021/11/27 05:17:55;;;;;;;4.40;3.08;;;2.50;99.50;;;;;;5048197;28;20566;-54
2021/11/27 05:20:21;;;;;;;3.85;2.63;;;2.60;99.10;;;;;;5062083;28;20067;-55
2021/11/27 05:22:48;;;;;;;3.35;2.60;;;2.60;98.70;;;;;;5068976;28;20076;-56
2021/11/27 05:25:15;;;;;;;2.72;2.38;;;2.60;98.90;;;;;;5067767;28;20048;-55
2021/11/27 05:27:42;;;;;;;3.28;2.78;;;2.60;98.90;;;;;;5066660;28;20084;-56
2021/11/27 05:30:10;;;;;;;3.33;2.60;;;2.60;98.90;;;;;;5070212;28;20094;-56
2021/11/27 05:35:06;;;;;;;3.33;2.75;;;2.60;98.50;;;;;;5071953;28;20098;-56
2021/11/27 05:37:33;;;;;;;4.35;3.00;;;2.60;98.70;;;;;;5071421;28;20127;-56
2021/11/27 05:40:02;;;;;;;3.88;2.90;;;2.60;98.60;;;;;;5071607;28;20044;-56
2021/11/27 05:42:29;;;;;;;3.60;2.72;;;2.70;98.90;;;;;;5054606;28;20701;-53
2021/11/27 05:44:56;;;;;;;3.63;3.03;;;2.60;98.60;;;;;;5072423;28;20143;-56
2021/11/27 05:47:23;;;;;;;4.72;2.95;;;2.60;98.90;;;;;;5072385;28;20450;-57
2021/11/27 05:49:50;;;;;;;4.35;3.03;;;2.60;98.80;;;;;;5070791;28;20078;-59
2021/11/27 05:52:18;;;;;;;6.43;3.50;;;2.60;98.80;;;;;;5071179;28;20464;-57
2021/11/27 05:54:44;;;;;;;3.95;2.80;;;2.60;98.70;;;;;;5071377;28;20055;-57
2021/11/27 05:57:11;;;;;;;4.22;2.33;;;2.60;98.90;;;;;;5070821;28;20088;-56
2021/11/27 05:59:38;;;;;;;2.90;2.17;;;2.60;98.70;;;;;;5069885;28;20105;-57
2021/11/27 06:02:05;;;;;;;3.75;2.53;;;2.60;98.50;;;;;;5070475;28;20132;-55
2021/11/27 06:04:32;;;;;;;4.65;3.13;;;2.60;98.60;;;;;;5070730;28;20508;-56
2021/11/27 06:06:59;;;;;;;6.10;2.65;;;2.60;98.60;;;;;;5069448;28;20319;-57
2021/11/27 06:09:26;;;;;;;6.57;2.60;;;2.60;98.40;;;;;;5070890;28;20048;-58
2021/11/27 06:11:52;;;;;;;4.70;2.85;;;2.60;98.60;;;;;;5070731;28;20122;-56
2021/11/27 06:14:19;;;;;;;6.57;3.03;;;2.70;98.40;;;;;;5069221;28;20094;-55
2021/11/27 06:16:46;;;;;;;5.30;3.03;;;2.60;98.10;;;;;;5069012;28;20044;-56
2021/11/27 06:19:13;;;;;;;3.30;2.90;;;2.60;98.10;;;;;;5052834;28;20056;-58
2021/11/27 06:21:40;;;;;;;5.18;3.33;;;2.60;98.30;;;;;;5070283;28;20048;-56
2021/11/27 06:24:08;;;;;;;4.45;3.13;;;2.60;98.70;;;;;;5069114;28;20040;-54
2021/11/27 06:26:35;;;;;;;4.38;2.70;;;2.70;98.60;;;;;;5070275;28;20127;-58
2021/11/27 06:29:03;;;;;;;4.15;2.85;;;2.70;98.50;;;;;;5070381;28;20048;-56
2021/11/27 06:31:30;;;;;;;3.33;2.55;;;2.70;98.60;;;;;;5070613;28;20052;-57
2021/11/27 06:33:57;;;;;;;6.25;3.63;;;2.70;98.40;;;;;;5070827;28;20079;-56
2021/11/27 06:36:28;;;;;;;4.40;3.05;;;2.70;98.60;;;;;;5070539;28;20053;-58
2021/11/27 06:38:55;;;;;;;5.05;3.38;;;2.70;98.50;;;;;;5070792;28;20041;-56
2021/11/27 06:41:22;;;;;;;4.50;2.88;;;2.80;98.60;;;;;;5069977;28;20053;-57
2021/11/27 06:43:49;;;;;;;5.32;2.85;;;2.70;98.50;;;;;;5070976;28;20121;-58
2021/11/27 06:46:16;;;;;;;5.35;2.55;;;2.70;98.20;;;;;;5072075;28;20048;-56
2021/11/27 06:48:43;;;;;;;6.93;2.88;;;2.70;98.30;;;;;;5069409;28;20041;-56
2021/11/27 06:51:10;;;;;;;4.72;3.22;;;2.70;98.30;;;;;;5071010;28;20079;-58
2021/11/27 06:53:36;;;;;;;5.70;2.97;;;2.70;98.60;;;;;;5068912;28;20071;-57
2021/11/27 06:56:03;;;;;;;4.60;2.75;;;2.70;98.20;;;;;;5069905;28;20076;-57
2021/11/27 06:58:31;;;;;;;6.53;3.55;;;2.70;98.10;;;;;;5070204;28;20476;-58
2021/11/27 07:00:58;;;;;;;4.72;3.08;;;2.70;98.30;;;;;;5070573;28;20462;-58
2021/11/27 07:03:26;;;;;;;5.10;2.65;;;2.70;98.10;;;;;;5070535;28;20052;-57
2021/11/27 07:05:53;;;;;;;3.05;2.58;;;2.70;98.10;;;;;;5070757;28;20056;-57
2021/11/27 07:08:20;;;;;;;5.15;2.55;;;2.70;98.10;;;;;;5069075;28;20048;-56
2021/11/27 07:10:50;;;;;;;4.55;2.92;;;2.80;98.00;;;;;;5069218;28;20084;-58
2021/11/27 07:13:18;;;;;;;3.60;2.67;;;2.70;97.80;;;;;;5067678;28;20151;-56
2021/11/27 07:15:46;;;;;;;7.00;3.30;;;2.70;98.10;;;;;;5069962;28;20052;-56
2021/11/27 07:18:13;;;;;;;7.13;2.55;;;2.70;98.20;;;;;;5069551;28;20723;-57
2021/11/27 07:20:40;;;;;;;3.78;2.35;;;2.70;97.80;;;;;;5062000;28;20044;-57
2021/11/27 07:23:09;;;;;;;6.75;2.67;;;2.70;97.90;;;;;;5067044;28;20048;-57
2021/11/27 07:25:36;;;;;;;7.30;2.92;;;2.80;98.00;;;;;;5068539;28;20052;-55
2021/11/27 07:28:07;;;;;;;3.92;2.50;;;2.80;98.00;;;;;;5068903;28;20079;-56
2021/11/27 07:30:34;;;;;;;5.82;3.00;;;2.80;98.00;;;;;;5068838;28;20044;-57
2021/11/27 07:33:01;;;;;;;7.55;2.53;;;2.80;97.80;;;;;;5068445;28;20041;-56
2021/11/27 07:35:28;;;;;;;5.75;3.03;;;2.90;97.60;;;;;;5068305;28;20506;-57
2021/11/27 07:37:55;;;;;;;11.48;2.90;;;2.80;97.60;;;;;;5069482;28;20495;-57
2021/11/27 07:40:22;;;;;;;3.85;2.55;;;2.90;97.80;;;;;;5068422;28;20045;-57
2021/11/27 07:42:52;;;;;;;4.07;2.67;;;2.90;97.90;;;;;;5067578;28;20151;-58
2021/11/27 07:45:20;;;;;;;4.10;2.70;;;2.90;97.80;;;;;;5068612;28;20044;-56
2021/11/27 07:47:47;;;;;;;4.80;2.63;;;2.90;97.80;;;;;;5050553;28;20107;-56
2021/11/27 07:50:13;;;;;;;5.60;2.60;;;2.90;97.20;;;;;;5068592;28;20082;-57
2021/11/27 07:52:41;;;;;;;3.28;2.55;;;2.90;97.70;;;;;;5066484;28;20048;-56
2021/11/27 07:55:08;;;;;;;2.67;2.42;;;2.50;97.80;;;;;;5068175;28;20044;-60
2021/11/27 07:57:35;;;;;;;3.22;2.63;;;2.80;97.60;;;;;;5067074;28;20110;-56
2021/11/27 08:00:02;;;;;;;3.83;2.38;;;2.80;97.70;;;;;;5068545;28;20124;-56
2021/11/27 08:02:29;;;;;;;5.68;2.55;;;2.90;97.70;;;;;;5067042;28;20956;-55
2021/11/27 08:04:56;;;;;;;5.97;3.17;;;3.00;97.80;;;;;;5067687;28;20040;-56
2021/11/27 08:07:23;;;;;;;4.75;3.13;;;2.90;97.80;;;;;;5068267;28;20086;-55
2021/11/27 08:09:50;;;;;;;5.18;2.70;;;2.90;97.90;;;;;;5067939;28;20135;-57
2021/11/27 08:12:16;;;;;;;3.53;2.88;;;2.90;98.10;;;;;;5066521;28;20151;-56
2021/11/27 08:14:43;;;;;;;6.22;2.90;;;3.00;98.00;;;;;;5067423;28;20101;-56
2021/11/27 08:17:10;;;;;;;4.88;2.90;;;3.00;97.80;;;;;;5067118;28;20049;-56
2021/11/27 08:19:37;;;;;;;4.40;3.00;;;3.10;98.20;;;;;;5068594;28;20053;-56
2021/11/27 08:22:03;;;;;;;3.95;2.90;;;3.00;98.20;;;;;;5066178;28;20076;-55
2021/11/27 08:24:30;;;;;;;6.25;2.97;;;3.10;98.30;;;;;;5066543;28;20476;-55
2021/11/27 08:26:57;;;;;;;4.68;3.40;;;3.10;98.20;;;;;;5065591;28;20131;-57
2021/11/27 08:29:24;;;;;;;6.60;3.40;;;3.10;98.50;;;;;;5066697;28;20484;-56
2021/11/27 08:31:51;;;;;;;6.05;3.20;;;3.10;98.50;;;;;;5065974;28;20040;-58
2021/11/27 08:34:17;;;;;;;4.47;3.53;;;3.30;98.30;;;;;;5067462;28;20080;-56
2021/11/27 08:36:44;;;;;;;6.00;3.95;;;3.20;98.90;;;;;;5067238;28;20060;-56
2021/11/27 08:39:11;;;;;;;6.35;3.60;;;3.30;98.40;;;;;;5065727;28;20503;-56
2021/11/27 08:41:38;;;;;;;12.50;3.00;;;3.30;98.10;;;;;;5067075;28;20211;-56
2021/11/27 08:44:05;;;;;;;5.80;3.60;;;3.30;98.20;;;;;;5066107;28;20069;-57
2021/11/27 08:46:31;;;;;;;4.50;3.35;;;3.30;98.10;;;;;;5065613;28;20583;-57
2021/11/27 08:48:58;;;;;;;3.67;3.13;;;3.40;98.30;;;;;;5065738;28;20456;-57
2021/11/27 08:51:25;;;;;;;4.13;2.85;;;3.40;98.20;;;;;;5064385;28;20136;-56
2021/11/27 08:53:52;;;;;;;8.93;3.38;;;3.40;98.30;;;;;;5065431;28;20101;-57
2021/11/27 08:56:18;;;;;;;4.47;2.28;;;3.50;98.20;;;;;;5050984;28;20079;-56
2021/11/27 08:58:45;;;;;;;3.42;2.20;;;3.50;97.90;;;;;;5065313;28;20044;-57
2021/11/27 09:01:12;;;;;;;5.97;2.20;;;3.60;97.70;;;;;;5066535;28;20320;-55
2021/11/27 09:03:40;;;;;;;8.57;2.50;;;3.60;97.70;;;;;;5066304;28;20044;-55
2021/11/27 09:06:07;;;;;;;4.00;1.70;;;3.60;97.70;;;;;;5066763;28;20044;-55
2021/11/27 09:08:38;;;;;;;3.63;1.45;;;3.60;97.80;;;;;;5066683;28;20094;-57
2021/11/27 09:11:06;;;;;;;3.85;1.63;;;3.70;97.20;;;;;;5065966;28;20495;-58
2021/11/27 09:13:34;;;;;;;3.22;1.85;;;3.70;97.30;;;;;;5066899;28;20168;-57
2021/11/27 09:16:02;;;;;;;6.32;1.58;;;3.80;97.00;;;;;;5067081;28;20598;-56
2021/11/27 09:18:49;;;;;;;5.30;1.42;;;3.80;97.20;;;;;;5065571;28;20041;-56
2021/11/27 09:21:16;;;;;;;2.20;1.42;;;3.80;97.20;;;;;;5066210;28;20052;-56
2021/11/27 09:23:43;;;;;;;6.07;1.63;;;3.80;97.00;;;;;;5063310;28;20083;-56
2021/11/27 09:26:09;;;;;;;3.00;1.70;;;3.90;97.00;;;;;;5065140;28;20064;-57
2021/11/27 09:28:36;;;;;;;7.18;1.85;;;3.80;97.10;;;;;;5065498;28;20098;-57
2021/11/27 09:31:03;;;;;;;2.42;1.50;;;3.80;97.20;;;;;;5066925;28;20056;-55
2021/11/27 09:33:31;;;;;;;4.15;1.80;;;3.80;97.10;;;;;;5065112;28;20051;-55
2021/11/27 09:36:03;;;;;;;2.80;1.50;;;3.80;97.10;;;;;;5065943;28;20462;-52
2021/11/27 09:38:30;;;;;;;5.72;1.30;;;3.80;97.00;;;;;;5065833;28;20044;-54
2021/11/27 09:41:21;;;;;;;7.68;1.23;;;3.90;97.10;;;;;;5066669;28;20099;-54
2021/11/27 09:43:49;;;;;;;7.20;1.67;;;3.80;96.80;;;;;;5066587;28;20685;-53
2021/11/27 09:46:19;;;;;;;10.65;2.75;;;3.80;97.00;;;;;;5066788;28;20138;-55
2021/11/27 09:48:48;;;;;;;4.30;1.77;;;3.90;96.90;;;;;;5066568;28;20056;-52
2021/11/27 09:51:15;;;;;;;5.28;1.15;;;4.00;97.20;;;;;;5067021;28;20084;-55
2021/11/27 09:53:42;;;;;;;3.83;1.55;;;4.10;97.20;;;;;;5066332;28;20076;-54
2021/11/27 09:56:08;;;;;;;9.70;1.70;;;4.10;97.10;;;;;;5064972;28;20079;-57
2021/11/27 09:58:35;;;;;;;7.30;2.30;;;4.10;97.20;;;;;;5064709;28;20045;-54
2021/11/27 10:01:03;;;;;;;4.18;1.40;;;4.30;97.00;;;;;;5054020;28;20297;-53
2021/11/27 10:03:31;;;;;;;3.55;1.85;;;4.30;97.10;;;;;;5063331;28;20329;-55
2021/11/27 10:05:58;;;;;;;2.83;2.33;;;4.50;96.60;;;;;;5062102;28;20049;-52
2021/11/27 10:08:25;;;;;;;4.47;1.80;;;4.50;96.70;;;;;;5064621;28;20044;-52
2021/11/27 10:10:51;;;;;;;6.68;1.52;;;4.60;96.60;;;;;;5064896;28;20084;-58
2021/11/27 10:13:19;;;;;;;2.83;1.30;;;4.70;96.90;;;;;;5066419;28;20127;-53
2021/11/27 10:15:46;;;;;;;4.60;1.40;;;4.80;96.50;;;;;;5067891;28;20080;-54
2021/11/27 10:18:21;;;;;;;2.70;1.50;;;5.00;96.50;;;;;;5069688;28;20388;-52
2021/11/27 10:20:47;;;;;;;6.68;2.22;;;5.00;96.40;;;;;;5069874;28;20109;-54
2021/11/27 10:23:15;;;;;;;4.93;2.47;;;5.00;96.30;;;;;;5069899;28;20059;-54
2021/11/27 10:25:42;;;;;;;10.07;3.38;;;5.00;96.20;;;;;;5068285;28;20045;-55
2021/11/27 10:28:10;;;;;;;4.47;2.25;;;5.00;96.10;;;;;;5069175;28;20075;-54
2021/11/27 10:30:40;;;;;;;9.07;2.25;;;5.00;96.00;;;;;;5067712;28;20090;-54
2021/11/27 10:33:07;;;;;;;5.22;1.73;;;5.00;96.40;;;;;;5069844;28;20060;-55
2021/11/27 10:35:34;;;;;;;6.28;1.60;;;5.10;96.20;;;;;;5069189;28;20071;-54
2021/11/27 10:38:00;;;;;;;6.70;1.90;;;5.00;96.50;;;;;;5068473;28;20182;-53
2021/11/27 10:40:33;;;;;;;10.75;2.05;;;5.00;96.20;;;;;;5067944;28;20040;-55
2021/11/27 10:43:04;;;;;;;5.60;2.13;;;4.90;95.50;;;;;;5069251;28;20114;-54
2021/11/27 10:45:35;;;;;;;5.65;1.40;;;5.00;96.10;;;;;;5068090;28;20123;-55
2021/11/27 10:48:15;;;;;;;5.35;1.98;;;4.90;96.00;;;;;;5067847;28;20055;-52
2021/11/27 10:50:43;;;;;;;7.60;1.85;;;4.90;95.90;;;;;;5069272;28;20180;-52
2021/11/27 10:53:14;;;;;;;3.15;1.40;;;4.80;95.60;;;;;;5069308;28;20423;-57
2021/11/27 10:55:41;;;;;;;2.15;1.30;;;4.90;95.90;;;;;;5069147;28;20042;-53
2021/11/27 10:58:11;;;;;;;2.13;1.20;;;4.90;95.60;;;;;;5068130;28;20519;-53
2021/11/27 11:00:41;;;;;;;6.80;1.42;;;5.00;96.00;;;;;;5069257;28;20045;-54
2021/11/27 11:03:26;;;;;;;4.97;1.35;;;5.00;96.40;;;;;;5056939;28;20052;-54
2021/11/27 11:05:55;;;;;;;7.35;1.48;;;5.00;96.00;;;;;;5067367;28;20067;-55
2021/11/27 11:08:48;;;;;;;3.33;1.23;;;5.00;96.20;;;;;;5051978;28;20048;-54
2021/11/27 11:11:21;;;;;;;6.43;1.67;;;5.00;96.10;;;;;;5065745;28;20048;-52
2021/11/27 11:13:53;;;;;;;7.50;1.60;;;5.00;96.20;;;;;;5068854;28;20451;-55
2021/11/27 11:16:21;;;;;;;3.38;1.30;;;5.10;96.20;;;;;;5068646;28;20256;-53
2021/11/27 11:18:51;;;;;;;3.30;1.00;;;5.10;95.90;;;;;;5069005;28;20106;-52
2021/11/27 11:21:19;;;;;;;5.97;1.92;;;5.10;96.30;;;;;;5068783;28;20040;-52
2021/11/27 11:23:46;;;;;;;7.82;2.58;;;5.20;96.30;;;;;;5068414;28;20060;-54
2021/11/27 11:26:33;;;;;;;2.25;0.82;;;5.20;96.20;;;;;;5067805;28;20047;-55
2021/11/27 11:29:00;;;;;;;5.60;1.17;;;5.30;95.90;;;;;;5051093;28;20052;-53
2021/11/27 11:31:31;;;;;;;4.43;1.27;;;5.30;95.70;;;;;;5067326;28;20107;-55
2021/11/27 11:33:59;;;;;;;4.50;1.35;;;5.30;96.10;;;;;;5069054;28;20086;-53
2021/11/27 11:36:42;;;;;;;3.60;0.95;;;5.40;96.00;;;;;;5068977;28;20067;-55
2021/11/27 11:39:08;;;;;;;2.03;0.98;;;5.40;95.50;;;;;;5067574;28;20044;-53
2021/11/27 11:41:36;;;;;;;2.75;0.77;;;5.40;96.00;;;;;;5068581;28;20088;-54
2021/11/27 11:44:03;;;;;;;2.10;0.70;;;5.40;96.20;;;;;;5063768;28;20041;-54
2021/11/27 11:46:29;;;;;;;4.78;0.90;;;5.30;96.30;;;;;;5067678;28;20439;-57
2021/11/27 11:48:56;;;;;;;3.00;1.23;;;5.20;96.20;;;;;;5067968;28;20040;-52
2021/11/27 11:51:33;;;;;;;1.20;0.65;;;5.10;96.80;;;;;;5067343;28;20048;-52
2021/11/27 11:54:00;;;;;;;1.70;0.70;;;5.10;97.00;;;;;;5067217;28;20052;-55
2021/11/27 11:56:43;;;;;;;1.85;0.68;;;5.00;97.00;;;;;;5066513;28;20618;-55
2021/11/27 11:59:18;;;;;;;5.20;0.80;;;5.00;97.50;;;;;;5068100;28;20053;-54
2021/11/27 12:01:59;;;;;;;;;;;5.00;97.50;;;;;;5069248;28;20051;-54
2021/11/27 12:04:25;;;;;;;4.07;1.20;;;5.00;97.80;;;;;;5066208;28;20283;-55
2021/11/27 12:06:52;;;;;;;2.17;1.08;;;4.90;97.10;;;;;;5066590;28;20094;-52
2021/11/27 12:09:19;;;;;;;5.13;0.80;;;4.90;97.10;;;;;;5066180;28;20462;-55
2021/11/27 12:11:46;;;;;;;2.92;0.82;;;4.80;97.00;;;;;;5066566;28;20075;-53
2021/11/27 12:14:23;;;;;;;5.35;1.00;;;4.90;97.20;;;;;;5067761;28;20076;-54
2021/11/27 12:17:14;;;;;;;1.05;0.77;;;4.90;97.40;;;;;;5067676;28;20044;-54
2021/11/27 12:19:45;;;;;;;6.63;1.30;;;4.90;97.20;;;;;;5067563;28;20090;-53
2021/11/27 12:22:31;;;;;;;4.35;1.00;;;4.90;97.00;;;;;;5068553;28;20052;-55
2021/11/27 12:25:19;;;;;;;11.63;3.15;;;5.00;97.30;;;;;;5068181;28;20519;-55
2021/11/27 12:28:04;;;;;;;6.57;1.38;;;4.90;96.70;;;;;;5064688;28;20140;-52
2021/11/27 12:30:41;;;;;;;9.10;2.20;;;5.00;97.10;;;;;;5065351;28;20109;-54
2021/11/27 12:33:20;;;;;;;4.85;1.60;;;5.50;97.30;;;;;;5063368;28;20053;-56
2021/11/27 12:35:47;;;;;;;5.75;1.75;;;4.90;96.90;;;;;;5044532;28;20587;-54
2021/11/27 12:38:32;;;;;;;4.93;1.45;;;4.90;96.90;;;;;;5062486;28;20080;-55
2021/11/27 12:40:59;;;;;;;3.22;1.25;;;4.90;96.30;;;;;;5061149;28;20400;-53
2021/11/27 12:43:26;;;;;;;9.05;3.00;;;4.80;96.30;;;;;;5064501;28;20051;-55
2021/11/27 12:45:56;;;;;;;8.27;1.35;;;4.80;96.90;;;;;;5062634;28;20123;-55
2021/11/27 12:48:34;;;;;;;9.40;2.03;;;4.80;96.50;;;;;;5062907;28;20080;-54
2021/11/27 12:51:23;;;;;;;2.65;1.20;;;4.80;96.80;;;;;;5064032;28;20063;-56
2021/11/27 12:53:59;;;;;;;4.30;2.08;;;4.80;97.00;;;;;;5064522;28;20084;-53
2021/11/27 12:56:44;;;;;;;11.48;2.13;;;4.80;97.20;;;;;;5064223;28;20071;-51
2021/11/27 12:59:15;;;;;;;5.82;1.63;;;4.40;97.20;;;;;;5064159;28;20094;-54
2021/11/27 13:01:42;;;;;;;4.75;1.65;;;4.80;96.90;;;;;;5061724;28;20101;-55
2021/11/27 13:04:09;;;;;;;15.15;2.15;;;4.80;97.10;;;;;;5064836;28;20045;-54
2021/11/27 13:06:38;;;;;;;6.18;1.75;;;4.80;96.90;;;;;;5062314;28;20067;-54